Alton, Maine
Current Conditions -  °F | °C
As of 1:53 AM on Monday 24 Nov 2014 (Local Time) from KBGR Reporting Station
Overcast Overcast  
Wind Chill:   Ceiling: 9500
Heat Index:   Visibility: 10mi
Dew Point:   Wind: 5mph
Humidity: 92%   Direction: 170°S
Pressure: 30.11"   Gusts: NA
Location:  45.0236°N, 68.7394°W
Report Text: KBGR 240653Z 17004KT 10SM SCT060 OVC095 06/04 A3011 RMK AO2 SLP197 T00560044
Loading
Personal Weather Stations






























Interactive Weather Map New forecast layout! Learn more

10-Day Weather Forecast

Advertisements
Track Severe Weather on mobile